Time;durP1;ratioP1;P1;durP2;ratioP2;P2;SDS_P1;SDS_P2;PMS_P1;PMS_P2;Temp;Humidity;BMP_temperature;BMP_pressure;BME280_temperature;BME280_humidity;BME280_pressure;Samples;Min_cycle;Max_cycle;Signal;HPM_P1;HPM_P2
2024/01/02 00:01:22;;;;;;;11.80;8.50;;;;;;;5.75;100.00;99629.00;109106;1254;66794;-56
2024/01/02 00:03:50;;;;;;;12.10;8.40;;;;;;;5.78;100.00;99623.23;109226;1254;71456;-56
2024/01/02 00:06:17;;;;;;;11.10;7.90;;;;;;;5.79;100.00;99628.88;109143;1254;61850;-56
2024/01/02 00:08:46;;;;;;;10.80;7.90;;;;;;;5.80;100.00;99620.52;109108;1254;58916;-57
2024/01/02 00:11:14;;;;;;;12.00;8.70;;;;;;;5.83;100.00;99618.30;109221;1254;72432;-57
2024/01/02 00:13:41;;;;;;;11.30;8.10;;;;;;;5.83;100.00;99613.13;109146;1254;66933;-56
2024/01/02 00:16:09;;;;;;;13.10;9.40;;;;;;;5.84;100.00;99603.56;109124;1254;71501;-57
2024/01/02 00:18:36;;;;;;;11.90;8.40;;;;;;;5.88;100.00;99598.27;109174;1254;61814;-57
2024/01/02 00:21:04;;;;;;;11.10;8.00;;;;;;;5.88;100.00;99599.50;109207;1254;60010;-58
2024/01/02 00:23:32;;;;;;;10.40;7.70;;;;;;;5.90;100.00;99590.66;109147;1254;73396;-57
2024/01/02 00:25:59;;;;;;;12.40;8.60;;;;;;;5.89;100.00;99583.20;109108;1256;65784;-57
2024/01/02 00:28:27;;;;;;;11.90;8.40;;;;;;;5.91;100.00;99577.64;109125;1254;72762;-57
2024/01/02 00:30:55;;;;;;;12.50;8.60;;;;;;;5.92;100.00;99571.98;109101;1254;61747;-58
2024/01/02 00:33:22;;;;;;;10.90;7.90;;;;;;;5.91;100.00;99573.63;109069;1254;60231;-58
2024/01/02 00:35:50;;;;;;;10.30;7.50;;;;;;;5.91;100.00;99573.88;109206;1254;74746;-57
2024/01/02 00:38:19;;;;;;;11.60;8.10;;;;;;;5.91;100.00;99575.89;109162;1254;66792;-57
2024/01/02 00:40:47;;;;;;;12.90;7.50;;;;;;;5.90;100.00;99566.64;109217;1254;72704;-57
2024/01/02 00:43:14;;;;;;;9.60;7.30;;;;;;;5.89;100.00;99561.23;109143;1254;60493;-58
2024/01/02 00:45:42;;;;;;;10.80;7.70;;;;;;;5.90;100.00;99561.33;109189;1254;60601;-57
2024/01/02 00:48:10;;;;;;;12.30;8.20;;;;;;;5.91;100.00;99560.73;109259;1254;76816;-57
2024/01/02 00:50:39;;;;;;;10.60;8.00;;;;;;;5.92;100.00;99557.58;109142;1254;66791;-57
2024/01/02 00:53:06;;;;;;;9.50;7.10;;;;;;;5.91;100.00;99554.30;109106;1254;71523;-57
2024/01/02 00:55:34;;;;;;;12.40;8.90;;;;;;;5.91;100.00;99547.80;109183;1254;60439;-57
2024/01/02 00:58:03;;;;;;;12.40;8.70;;;;;;;5.91;100.00;99547.09;109150;1254;60203;-57
2024/01/02 01:00:31;;;;;;;11.50;8.10;;;;;;;5.91;100.00;99541.41;109184;1254;75190;-57
2024/01/02 01:02:59;;;;;;;10.20;7.60;;;;;;;5.94;100.00;99544.34;109147;1254;66833;-57
2024/01/02 01:05:26;;;;;;;10.80;7.90;;;;;;;5.96;100.00;99541.35;109092;1254;72729;-58
2024/01/02 01:07:54;;;;;;;12.10;8.60;;;;;;;5.98;100.00;99533.09;109115;1254;61805;-57
2024/01/02 01:10:22;;;;;;;9.90;7.80;;;;;;;5.99;100.00;99530.17;109250;1254;59131;-57
2024/01/02 01:12:51;;;;;;;10.60;7.90;;;;;;;6.02;100.00;99529.90;109212;1254;74944;-57
2024/01/02 01:15:19;;;;;;;11.50;8.30;;;;;;;6.02;100.00;99526.02;109133;1254;66226;-57
2024/01/02 01:17:46;;;;;;;13.60;9.70;;;;;;;6.04;100.00;99522.59;109063;1254;72250;-57
2024/01/02 01:20:14;;;;;;;9.20;7.10;;;;;;;6.04;100.00;99518.80;109255;1253;61715;-57
2024/01/02 01:22:42;;;;;;;13.10;8.50;;;;;;;6.05;100.00;99513.27;109132;1254;60202;-57
2024/01/02 01:25:10;;;;;;;11.20;8.20;;;;;;;6.07;100.00;99512.34;109113;1254;76692;-57
2024/01/02 01:27:37;;;;;;;13.10;9.90;;;;;;;6.09;100.00;99505.95;109264;1254;67601;-58
2024/01/02 01:30:05;;;;;;;10.80;8.50;;;;;;;6.11;100.00;99507.19;109190;1254;73335;-57
2024/01/02 01:32:33;;;;;;;10.00;7.80;;;;;;;6.12;100.00;99502.25;109179;1254;61923;-57
2024/01/02 01:35:02;;;;;;;10.70;7.00;;;;;;;6.12;100.00;99502.98;109282;1254;60101;-57
2024/01/02 01:37:29;;;;;;;11.50;8.70;;;;;;;6.14;100.00;99502.88;109208;1254;74769;-57
2024/01/02 01:39:57;;;;;;;11.00;8.10;;;;;;;6.15;100.00;99499.84;109259;1254;67499;-57
2024/01/02 01:42:25;;;;;;;14.40;8.40;;;;;;;6.18;100.00;99494.48;109140;1254;72823;-57
2024/01/02 01:44:52;;;;;;;11.90;8.50;;;;;;;6.21;100.00;99485.54;109215;1254;59509;-57
2024/01/02 01:47:20;;;;;;;14.00;10.10;;;;;;;6.23;100.00;99481.39;109239;1254;59018;-57
2024/01/02 01:49:47;;;;;;;11.50;9.30;;;;;;;6.23;100.00;99477.26;109061;1254;73453;-58
2024/01/02 01:52:16;;;;;;;12.70;9.50;;;;;;;6.23;100.00;99472.84;109068;1254;65287;-57
2024/01/02 01:54:43;;;;;;;11.10;8.30;;;;;;;6.24;100.00;99471.10;108945;1254;71446;-57
2024/01/02 01:57:12;;;;;;;13.70;9.60;;;;;;;6.27;100.00;99469.56;109109;1255;61747;-57
2024/01/02 01:59:40;;;;;;;13.10;9.60;;;;;;;6.31;100.00;99469.08;109006;1254;60302;-57
2024/01/02 02:02:08;;;;;;;13.50;9.60;;;;;;;6.37;100.00;99470.11;109198;1254;74703;-57
2024/01/02 02:04:36;;;;;;;12.00;9.40;;;;;;;6.40;100.00;99470.71;109067;1254;66957;-57
2024/01/02 02:07:03;;;;;;;12.60;10.10;;;;;;;6.42;100.00;99466.98;109058;1254;72681;-57
2024/01/02 02:09:31;;;;;;;13.20;9.30;;;;;;;6.46;100.00;99466.76;109012;1254;60682;-56
2024/01/02 02:11:59;;;;;;;12.80;9.60;;;;;;;6.49;100.00;99459.09;109114;1254;59277;-57
2024/01/02 02:14:26;;;;;;;12.80;9.30;;;;;;;6.54;100.00;99457.00;109102;1254;75217;-57
2024/01/02 02:16:54;;;;;;;13.60;10.50;;;;;;;6.60;100.00;99454.61;109214;1254;67435;-57
2024/01/02 02:19:23;;;;;;;13.30;10.20;;;;;;;6.69;100.00;99458.25;109271;1253;71489;-57
2024/01/02 02:21:51;;;;;;;13.40;9.60;;;;;;;6.79;100.00;99452.58;108980;1258;60474;-57
2024/01/02 02:24:19;;;;;;;14.30;10.20;;;;;;;6.88;100.00;99452.89;109171;1254;59589;-57
2024/01/02 02:26:46;;;;;;;13.20;10.70;;;;;;;6.96;100.00;99451.74;109079;1254;73831;-57
2024/01/02 02:29:14;;;;;;;16.20;11.60;;;;;;;7.02;100.00;99449.06;109152;1254;66152;-57
2024/01/02 02:31:42;;;;;;;13.60;10.70;;;;;;;7.07;100.00;99442.39;108995;1254;72741;-57
2024/01/02 02:34:09;;;;;;;17.00;12.00;;;;;;;7.13;100.00;99440.34;109104;1254;60578;-58
2024/01/02 02:36:37;;;;;;;14.70;12.00;;;;;;;7.18;100.00;99435.36;109101;1254;58839;-58
2024/01/02 02:39:05;;;;;;;13.90;10.30;;;;;;;7.24;100.00;99435.18;109125;1254;72847;-58
2024/01/02 02:41:32;;;;;;;15.50;10.20;;;;;;;7.28;100.00;99433.00;109010;1254;66950;-58
2024/01/02 02:44:00;;;;;;;12.20;9.70;;;;;;;7.30;100.00;99425.80;109143;1254;71468;-58
2024/01/02 02:46:28;;;;;;;14.10;10.70;;;;;;;7.34;100.00;99427.15;109063;1254;61753;-58
2024/01/02 02:48:55;;;;;;;16.00;11.50;;;;;;;7.36;100.00;99427.39;109202;1254;60163;-58
2024/01/02 02:51:23;;;;;;;14.10;10.90;;;;;;;7.40;100.00;99422.48;109131;1254;74725;-58
2024/01/02 02:53:51;;;;;;;13.80;10.70;;;;;;;7.44;100.00;99424.39;109223;1254;65805;-58
2024/01/02 02:56:19;;;;;;;15.60;11.60;;;;;;;7.48;100.00;99424.17;109135;1254;71349;-58
2024/01/02 02:58:47;;;;;;;12.70;10.50;;;;;;;7.52;100.00;99423.38;108952;1256;61704;-58
2024/01/02 03:01:22;;;;;;;13.30;10.70;;;;;;;7.54;100.00;99416.21;108996;1254;189538;-58
2024/01/02 03:03:49;;;;;;;14.50;10.90;;;;;;;7.56;100.00;99411.32;109278;1254;73833;-58
2024/01/02 03:06:17;;;;;;;15.90;11.90;;;;;;;7.59;100.00;99417.33;109159;1254;66697;-59
2024/01/02 03:08:45;;;;;;;15.90;12.10;;;;;;;7.63;100.00;99416.59;109118;1254;71718;-58
2024/01/02 03:11:12;;;;;;;14.80;11.10;;;;;;;7.63;100.00;99410.12;109127;1254;60361;-58
2024/01/02 03:13:40;;;;;;;16.10;11.90;;;;;;;7.64;100.00;99406.18;109196;1254;59468;-58
2024/01/02 03:16:08;;;;;;;15.70;12.90;;;;;;;7.68;100.00;99402.54;109123;1254;74781;-59
2024/01/02 03:18:36;;;;;;;17.20;13.60;;;;;;;7.69;100.00;99395.20;109118;1254;67170;-57
2024/01/02 03:21:05;;;;;;;16.60;13.00;;;;;;;7.75;100.00;99391.11;109112;1254;72762;-58
2024/01/02 03:23:34;;;;;;;17.30;12.60;;;;;;;7.78;100.00;99389.30;109132;1255;61689;-58
2024/01/02 03:26:02;;;;;;;19.40;13.10;;;;;;;7.80;100.00;99385.98;109296;1254;60068;-57
2024/01/02 03:28:30;;;;;;;17.20;13.40;;;;;;;7.85;100.00;99383.50;109185;1254;74731;-58
2024/01/02 03:30:58;;;;;;;15.30;12.50;;;;;;;7.90;100.00;99379.63;109221;1254;66920;-58
2024/01/02 03:33:26;;;;;;;18.00;14.70;;;;;;;7.92;100.00;99369.07;109202;1254;71030;-58
2024/01/02 03:35:53;;;;;;;18.50;13.70;;;;;;;7.97;100.00;99358.65;109084;1254;60457;-58
2024/01/02 03:38:21;;;;;;;17.50;13.00;;;;;;;8.02;100.00;99358.88;109078;1254;60088;-58
2024/01/02 03:40:50;;;;;;;16.30;12.90;;;;;;;8.04;100.00;99355.30;109193;1254;74731;-58
2024/01/02 03:43:17;;;;;;;14.80;12.30;;;;;;;8.07;100.00;99347.25;109126;1254;66211;-58
2024/01/02 03:45:45;;;;;;;16.10;12.90;;;;;;;8.10;100.00;99341.85;109143;1254;71724;-58
2024/01/02 03:48:12;;;;;;;18.20;13.80;;;;;;;8.14;100.00;99337.05;109110;1254;60688;-57
2024/01/02 03:50:41;;;;;;;20.40;14.40;;;;;;;8.16;100.00;99342.13;109255;1254;59461;-58
2024/01/02 03:53:08;;;;;;;16.40;13.20;;;;;;;8.18;100.00;99334.59;109203;1254;73581;-58
2024/01/02 03:55:36;;;;;;;19.30;14.00;;;;;;;8.21;100.00;99326.91;109218;1254;66978;-58
2024/01/02 03:58:04;;;;;;;17.10;13.60;;;;;;;8.23;100.00;99320.42;109160;1254;71498;-58
2024/01/02 04:00:33;;;;;;;23.20;15.90;;;;;;;8.25;100.00;99316.94;109090;1255;61660;-58
2024/01/02 04:03:01;;;;;;;20.10;15.60;;;;;;;8.28;100.00;99309.95;109105;1256;60096;-58
2024/01/02 04:05:29;;;;;;;20.60;15.60;;;;;;;8.30;100.00;99312.63;109237;1254;74722;-58
2024/01/02 04:07:57;;;;;;;22.70;16.10;;;;;;;8.31;100.00;99302.00;109158;1254;66954;-58
2024/01/02 04:10:24;;;;;;;23.50;16.30;;;;;;;8.34;100.00;99307.33;109133;1254;72707;-58
2024/01/02 04:12:52;;;;;;;22.10;17.20;;;;;;;8.37;100.00;99308.00;109119;1254;62129;-58
2024/01/02 04:15:19;;;;;;;22.30;16.70;;;;;;;8.40;100.00;99304.88;109244;1255;59071;-57
2024/01/02 04:17:47;;;;;;;22.60;15.90;;;;;;;8.43;100.00;99311.96;109128;1254;74886;-58
2024/01/02 04:20:15;;;;;;;20.60;16.40;;;;;;;8.44;100.00;99303.01;109190;1254;66098;-58
2024/01/02 04:22:43;;;;;;;22.60;15.90;;;;;;;8.44;100.00;99305.54;109114;1255;72726;-58
2024/01/02 04:25:10;;;;;;;20.60;15.70;;;;;;;8.45;100.00;99304.07;109146;1254;62273;-57
2024/01/02 04:27:38;;;;;;;21.50;15.60;;;;;;;8.46;100.00;99309.94;109168;1254;58910;-58
2024/01/02 04:30:07;;;;;;;24.20;16.70;;;;;;;8.47;100.00;99317.02;109242;1254;74622;-58
2024/01/02 04:32:35;;;;;;;22.70;16.20;;;;;;;8.47;100.00;99311.17;109246;1257;66947;-58
2024/01/02 04:35:03;;;;;;;22.00;16.30;;;;;;;8.47;100.00;99314.89;109123;1255;71609;-58
2024/01/02 04:37:31;;;;;;;21.20;15.60;;;;;;;8.47;100.00;99314.30;109213;1254;60783;-58
2024/01/02 04:39:58;;;;;;;21.90;16.40;;;;;;;8.49;100.00;99310.00;109152;1254;59418;-58
2024/01/02 04:42:26;;;;;;;22.20;16.50;;;;;;;8.49;100.00;99306.09;109137;1254;73484;-58
2024/01/02 04:44:54;;;;;;;23.70;17.20;;;;;;;8.50;100.00;99312.48;109120;1254;65941;-57
2024/01/02 04:47:21;;;;;;;23.90;18.20;;;;;;;8.49;100.00;99311.92;109079;1254;71524;-58
2024/01/02 04:49:49;;;;;;;21.80;17.40;;;;;;;8.48;100.00;99310.08;109086;1256;61701;-58
2024/01/02 04:52:17;;;;;;;22.60;17.00;;;;;;;8.49;100.00;99306.04;109228;1254;60244;-57
2024/01/02 04:54:45;;;;;;;23.20;15.90;;;;;;;8.49;100.00;99305.64;109134;1254;74828;-58
2024/01/02 04:57:13;;;;;;;29.80;17.50;;;;;;;8.51;100.00;99311.48;109131;1254;65737;-57
2024/01/02 04:59:40;;;;;;;21.90;16.30;;;;;;;8.52;100.00;99310.98;109234;1253;72694;-58
2024/01/02 05:02:08;;;;;;;22.70;17.00;;;;;;;8.54;100.00;99306.46;109113;1254;61702;-58
2024/01/02 05:04:36;;;;;;;27.60;16.10;;;;;;;8.56;100.00;99301.48;109121;1254;60540;-57
2024/01/02 05:07:03;;;;;;;22.80;16.70;;;;;;;8.59;100.00;99295.05;109201;1254;74629;-58
2024/01/02 05:09:31;;;;;;;23.70;17.30;;;;;;;8.61;100.00;99295.04;109131;1254;65623;-59
2024/01/02 05:11:59;;;;;;;24.40;18.10;;;;;;;8.63;100.00;99296.47;109074;1254;72690;-57
2024/01/02 05:14:27;;;;;;;22.50;16.50;;;;;;;8.65;100.00;99291.14;109124;1254;60485;-58
2024/01/02 05:16:55;;;;;;;23.30;16.50;;;;;;;8.66;100.00;99292.73;109141;1256;58921;-57
2024/01/02 05:19:23;;;;;;;25.40;19.40;;;;;;;8.65;100.00;99292.16;109135;1254;74786;-58
2024/01/02 05:21:51;;;;;;;29.20;19.40;;;;;;;8.67;100.00;99301.52;109202;1254;66960;-58
2024/01/02 05:24:19;;;;;;;23.00;17.20;;;;;;;8.68;100.00;99299.34;109129;1254;72527;-57
2024/01/02 05:26:46;;;;;;;21.00;15.60;;;;;;;8.69;100.00;99299.98;109185;1254;59864;-58
2024/01/02 05:29:14;;;;;;;24.00;16.60;;;;;;;8.69;100.00;99301.02;109146;1254;59262;-58
2024/01/02 05:31:41;;;;;;;21.70;16.80;;;;;;;8.71;100.00;99296.48;109097;1254;74790;-58
2024/01/02 05:34:09;;;;;;;21.70;15.80;;;;;;;8.73;100.00;99298.27;109250;1254;67652;-58
2024/01/02 05:36:37;;;;;;;19.00;14.70;;;;;;;8.75;100.00;99294.55;109152;1255;72752;-58
2024/01/02 05:39:04;;;;;;;22.10;16.00;;;;;;;8.75;100.00;99294.16;109155;1254;61768;-58
2024/01/02 05:41:32;;;;;;;20.40;14.80;;;;;;;8.76;100.00;99292.18;109139;1254;58935;-58
2024/01/02 05:43:59;;;;;;;22.80;16.30;;;;;;;8.77;100.00;99290.77;109111;1254;75153;-58
2024/01/02 05:46:27;;;;;;;20.30;15.10;;;;;;;8.79;100.00;99289.91;109100;1254;67744;-58
2024/01/02 05:48:54;;;;;;;18.30;14.50;;;;;;;8.81;100.00;99292.89;109138;1254;72778;-58
2024/01/02 05:51:22;;;;;;;21.00;15.20;;;;;;;8.84;100.00;99286.84;109273;1254;60518;-58
2024/01/02 05:53:50;;;;;;;21.30;16.30;;;;;;;8.86;100.00;99281.59;109142;1254;60139;-59
2024/01/02 05:56:17;;;;;;;25.20;16.30;;;;;;;8.87;100.00;99276.26;109148;1254;74624;-58
2024/01/02 05:58:45;;;;;;;21.50;16.10;;;;;;;8.89;100.00;99277.36;109292;1257;67026;-58
2024/01/02 06:01:13;;;;;;;21.30;16.10;;;;;;;8.89;100.00;99269.85;109096;1254;72774;-58
2024/01/02 06:03:40;;;;;;;22.80;17.80;;;;;;;8.89;100.00;99269.34;109203;1254;61752;-58
2024/01/02 06:06:08;;;;;;;25.60;17.90;;;;;;;8.90;100.00;99265.31;109252;1254;60052;-59
2024/01/02 06:08:41;;;;;;;27.00;17.00;;;;;;;8.91;100.00;99266.35;109173;1254;73476;-58
2024/01/02 06:11:12;;;;;;;25.90;18.90;;;;;;;8.91;100.00;99263.75;109117;1254;65989;-58
2024/01/02 06:13:40;;;;;;;20.90;15.50;;;;;;;8.92;100.00;99265.19;109209;1254;71441;-58
2024/01/02 06:16:10;;;;;;;23.20;16.90;;;;;;;8.92;100.00;99261.70;109147;1256;60480;-59
2024/01/02 06:18:38;;;;;;;22.40;17.30;;;;;;;8.92;100.00;99257.59;108988;1254;58922;-58
2024/01/02 06:21:07;;;;;;;20.90;16.50;;;;;;;8.91;100.00;99256.42;109281;1254;74723;-58
2024/01/02 06:23:35;;;;;;;26.70;17.00;;;;;;;8.92;100.00;99256.23;109218;1254;65651;-57
2024/01/02 06:26:14;;;;;;;24.20;16.90;;;;;;;8.93;100.00;99259.34;109135;1254;71951;-58
2024/01/02 06:28:42;;;;;;;25.00;17.30;;;;;;;8.93;100.00;99254.95;109088;1254;60604;-57
2024/01/02 06:31:09;;;;;;;24.80;17.00;;;;;;;8.94;100.00;99254.64;109151;1254;59262;-57
2024/01/02 06:33:39;;;;;;;24.30;16.90;;;;;;;8.94;100.00;99257.96;109092;1255;74700;-58
2024/01/02 06:36:07;;;;;;;27.10;19.80;;;;;;;8.93;100.00;99264.49;109082;1256;66927;-58
2024/01/02 06:38:34;;;;;;;23.90;17.60;;;;;;;8.95;100.00;99262.60;109098;1254;73203;-57
2024/01/02 06:41:03;;;;;;;24.60;17.90;;;;;;;8.96;100.00;99257.48;109116;1256;60449;-57
2024/01/02 06:43:30;;;;;;;23.50;16.80;;;;;;;8.96;100.00;99256.72;109275;1254;59461;-57
2024/01/02 06:45:58;;;;;;;21.70;17.10;;;;;;;8.96;100.00;99252.40;109133;1254;73698;-57
2024/01/02 06:48:26;;;;;;;20.00;16.70;;;;;;;8.95;100.00;99248.69;109061;1254;66307;-58
2024/01/02 06:50:53;;;;;;;24.30;17.20;;;;;;;8.95;100.00;99249.41;109099;1256;72735;-57
2024/01/02 06:53:21;;;;;;;22.60;18.20;;;;;;;8.96;100.00;99247.68;109075;1254;60838;-57
2024/01/02 06:55:48;;;;;;;25.40;17.70;;;;;;;8.96;100.00;99242.29;109153;1254;59572;-57
2024/01/02 06:58:16;;;;;;;26.50;19.20;;;;;;;8.96;100.00;99235.56;109091;1256;73482;-56
2024/01/02 07:00:44;;;;;;;22.70;18.00;;;;;;;8.97;100.00;99238.92;109072;1254;67428;-56
2024/01/02 07:03:11;;;;;;;23.10;17.20;;;;;;;8.95;100.00;99239.17;109093;1255;71115;-57
2024/01/02 07:05:39;;;;;;;22.10;17.90;;;;;;;8.95;100.00;99236.52;109102;1254;61756;-57
2024/01/02 07:08:07;;;;;;;25.30;18.70;;;;;;;8.95;100.00;99242.48;109120;1256;60155;-56
2024/01/02 07:10:35;;;;;;;26.10;19.30;;;;;;;8.95;100.00;99238.81;109168;1254;73440;-58
2024/01/02 07:13:03;;;;;;;23.10;18.10;;;;;;;8.97;100.00;99244.09;109091;1254;69294;-57
2024/01/02 07:15:31;;;;;;;23.10;17.30;;;;;;;8.99;100.00;99244.85;109112;1256;72858;-57
2024/01/02 07:17:58;;;;;;;25.40;18.80;;;;;;;9.01;100.00;99251.58;109089;1254;60466;-57
2024/01/02 07:20:26;;;;;;;25.20;19.30;;;;;;;9.04;100.00;99254.58;109092;1254;59069;-57
2024/01/02 07:22:54;;;;;;;24.30;18.30;;;;;;;9.05;100.00;99255.21;109079;1254;75279;-57
2024/01/02 07:25:22;;;;;;;24.60;18.20;;;;;;;9.07;100.00;99253.27;109134;1254;66100;-56
2024/01/02 07:27:50;;;;;;;21.20;16.40;;;;;;;9.05;100.00;99251.23;109115;1254;71869;-57
2024/01/02 07:30:18;;;;;;;24.60;18.00;;;;;;;9.03;100.00;99255.86;109085;1254;61976;-57
2024/01/02 07:32:46;;;;;;;25.80;18.70;;;;;;;9.02;100.00;99259.57;109093;1254;59197;-57
2024/01/02 07:35:14;;;;;;;24.00;18.20;;;;;;;9.01;100.00;99260.73;109144;1254;75570;-56
2024/01/02 07:37:42;;;;;;;22.60;18.20;;;;;;;8.98;100.00;99262.17;109181;1254;65696;-57
2024/01/02 07:40:10;;;;;;;25.00;18.60;;;;;;;8.97;100.00;99264.45;109206;1256;72780;-57
2024/01/02 07:42:38;;;;;;;26.50;19.50;;;;;;;8.95;100.00;99259.12;109139;1254;61806;-58
2024/01/02 07:45:06;;;;;;;23.30;17.50;;;;;;;8.91;100.00;99262.79;109183;1254;60082;-57
2024/01/02 07:47:34;;;;;;;22.60;17.80;;;;;;;8.87;100.00;99260.54;109096;1254;74719;-57
2024/01/02 07:50:04;;;;;;;24.00;17.40;;;;;;;8.83;100.00;99258.02;109276;1253;66927;-57
2024/01/02 07:52:32;;;;;;;25.10;18.30;;;;;;;8.81;100.00;99259.64;109103;1254;72801;-57
2024/01/02 07:55:00;;;;;;;26.30;18.90;;;;;;;8.78;100.00;99261.59;109090;1254;61897;-56
2024/01/02 07:57:28;;;;;;;22.20;17.90;;;;;;;8.76;100.00;99259.79;109209;1256;60146;-57
2024/01/02 07:59:56;;;;;;;27.60;18.90;;;;;;;8.73;100.00;99261.77;109126;1254;74803;-55
2024/01/02 08:02:24;;;;;;;23.90;18.60;;;;;;;8.65;100.00;99260.39;109219;1254;67199;-55
2024/01/02 08:04:51;;;;;;;22.40;17.80;;;;;;;8.56;100.00;99257.92;109119;1254;71866;-56
2024/01/02 08:07:19;;;;;;;25.20;18.30;;;;;;;8.49;100.00;99260.58;109340;1253;61765;-55
2024/01/02 08:09:47;;;;;;;24.40;17.70;;;;;;;8.45;100.00;99263.39;109178;1254;60064;-55
2024/01/02 08:12:14;;;;;;;23.00;16.50;;;;;;;8.39;100.00;99264.29;109344;1254;73553;-55
2024/01/02 08:14:42;;;;;;;23.90;17.60;;;;;;;8.33;100.00;99258.31;109220;1254;67065;-55
2024/01/02 08:17:11;;;;;;;21.00;16.10;;;;;;;8.26;100.00;99268.48;109143;1254;72540;-55
2024/01/02 08:19:39;;;;;;;21.50;16.80;;;;;;;8.22;100.00;99272.83;109165;1257;61786;-55
2024/01/02 08:22:07;;;;;;;21.70;15.90;;;;;;;8.20;100.00;99267.55;109163;1254;60768;-55
2024/01/02 08:24:35;;;;;;;20.30;15.30;;;;;;;8.18;100.00;99263.10;109260;1254;74841;-55
2024/01/02 08:27:03;;;;;;;19.00;14.80;;;;;;;8.17;100.00;99265.34;109176;1254;65753;-55
2024/01/02 08:29:31;;;;;;;21.50;15.50;;;;;;;8.13;100.00;99263.85;109085;1255;72794;-55
2024/01/02 08:31:58;;;;;;;18.10;14.20;;;;;;;8.11;100.00;99259.91;109341;1254;61732;-55
2024/01/02 08:34:26;;;;;;;19.70;14.60;;;;;;;8.06;100.00;99256.25;109137;1255;58916;-55
2024/01/02 08:36:54;;;;;;;21.00;16.20;;;;;;;8.00;100.00;99262.60;109098;1254;74746;-55
2024/01/02 08:39:21;;;;;;;22.80;16.30;;;;;;;7.93;100.00;99263.24;109078;1255;67034;-55
2024/01/02 08:41:49;;;;;;;22.50;16.60;;;;;;;7.89;100.00;99263.30;109111;1256;72737;-55
2024/01/02 08:44:17;;;;;;;21.10;15.60;;;;;;;7.84;100.00;99269.80;109265;1253;61770;-54
2024/01/02 08:46:44;;;;;;;21.20;15.60;;;;;;;7.81;100.00;99270.64;109177;1254;60497;-54
2024/01/02 08:49:13;;;;;;;23.30;16.90;;;;;;;7.77;100.00;99266.75;109139;1254;73510;-54
2024/01/02 08:51:41;;;;;;;23.00;16.20;;;;;;;7.76;100.00;99263.61;109172;1256;67990;-55
2024/01/02 08:54:09;;;;;;;22.00;15.60;;;;;;;7.73;100.00;99263.19;109124;1256;71420;-55
2024/01/02 08:56:37;;;;;;;22.70;16.80;;;;;;;7.70;100.00;99262.46;109096;1254;61798;-55
2024/01/02 08:59:04;;;;;;;23.20;16.40;;;;;;;7.70;100.00;99269.55;109128;1254;60154;-56
2024/01/02 09:01:32;;;;;;;20.10;14.60;;;;;;;7.70;100.00;99271.64;109134;1254;73771;-56
2024/01/02 09:04:00;;;;;;;22.50;16.40;;;;;;;7.71;100.00;99264.77;109350;1254;66586;-56
2024/01/02 09:06:33;;;;;;;19.30;14.50;;;;;;;7.72;100.00;99266.21;109124;1254;71432;-56
2024/01/02 09:09:00;;;;;;;20.30;15.50;;;;;;;7.74;100.00;99265.12;109269;1253;60404;-55
2024/01/02 09:11:28;;;;;;;21.70;15.70;;;;;;;7.76;100.00;99269.70;109138;1254;60103;-57
2024/01/02 09:13:56;;;;;;;20.20;15.70;;;;;;;7.78;100.00;99266.66;109139;1254;73427;-56
2024/01/02 09:16:31;;;;;;;20.90;15.10;;;;;;;7.79;100.00;99264.27;109219;1259;66929;-55
2024/01/02 09:18:59;;;;;;;19.60;14.30;;;;;;;7.82;100.00;99258.46;109176;1254;72762;-56
2024/01/02 09:21:26;;;;;;;19.90;15.10;;;;;;;7.84;100.00;99257.04;109184;1254;61263;-57
2024/01/02 09:23:54;;;;;;;21.00;14.70;;;;;;;7.87;100.00;99251.07;109108;1254;60124;-55
2024/01/02 09:26:23;;;;;;;18.90;14.00;;;;;;;7.90;100.00;99256.08;109126;1254;74742;-56
2024/01/02 09:28:50;;;;;;;19.10;14.60;;;;;;;7.92;100.00;99253.39;109094;1256;66997;-55
2024/01/02 09:31:19;;;;;;;22.40;14.00;;;;;;;7.94;100.00;99250.86;109111;1254;72732;-55
2024/01/02 09:33:46;;;;;;;21.70;14.80;;;;;;;7.95;100.00;99247.77;108959;1255;60662;-56
2024/01/02 09:36:15;;;;;;;21.50;13.80;;;;;;;7.95;100.00;99252.27;109175;1254;60104;-55
2024/01/02 09:38:42;;;;;;;21.80;14.30;;;;;;;7.92;100.00;99247.83;109102;1254;73748;-55
2024/01/02 09:41:19;;;;;;;18.40;14.40;;;;;;;7.89;100.00;99251.13;109106;1254;66940;-55
2024/01/02 09:43:51;;;;;;;16.80;13.00;;;;;;;7.85;100.00;99252.86;109064;1254;72746;-55
2024/01/02 09:46:54;;;;;;;19.40;12.90;;;;;;;7.80;100.00;99252.41;109034;1256;60537;-55
2024/01/02 09:49:34;;;;;;;21.60;14.50;;;;;;;7.76;100.00;99250.27;109032;1256;59747;-55
2024/01/02 09:52:11;;;;;;;19.10;13.50;;;;;;;7.76;100.00;99249.83;109153;1254;72920;-55
2024/01/02 09:55:04;;;;;;;19.20;12.70;;;;;;;7.74;100.00;99247.79;109173;1254;65842;-57
2024/01/02 09:57:35;;;;;;;15.00;11.10;;;;;;;7.73;100.00;99247.59;109184;1254;72705;-55
2024/01/02 10:00:11;;;;;;;15.60;11.40;;;;;;;7.72;100.00;99240.67;109264;1254;60351;-55
2024/01/02 10:03:08;;;;;;;15.60;11.20;;;;;;;7.73;100.00;99234.97;109319;1254;60118;-55
2024/01/02 10:05:46;;;;;;;13.20;9.90;;;;;;;7.79;100.00;99222.16;108937;1254;73777;-55
2024/01/02 10:08:25;;;;;;;14.00;10.00;;;;;;;7.83;100.00;99217.45;108985;1254;67027;-54
2024/01/02 10:10:58;;;;;;;12.10;8.80;;;;;;;7.89;100.00;99212.71;109277;1253;72691;-55
2024/01/02 10:13:48;;;;;;;11.50;7.80;;;;;;;7.92;100.00;99211.52;109154;1254;61930;-55
2024/01/02 10:16:31;;;;;;;11.10;8.00;;;;;;;7.93;100.00;99220.45;109276;1254;59025;-55
2024/01/02 10:19:22;;;;;;;13.70;9.10;;;;;;;7.93;100.00;99221.64;109288;1254;74736;-54
2024/01/02 10:22:11;;;;;;;12.30;8.10;;;;;;;7.91;100.00;99221.04;109131;1254;66152;-54
2024/01/02 10:24:52;;;;;;;8.30;6.00;;;;;;;7.87;100.00;99214.55;109301;1254;71457;-55
2024/01/02 10:27:31;;;;;;;8.60;6.00;;;;;;;7.82;100.00;99206.20;109077;1255;60188;-54
2024/01/02 10:30:06;;;;;;;9.20;5.80;;;;;;;7.77;100.00;99211.79;109195;1254;60504;-56
2024/01/02 10:32:54;;;;;;;8.40;5.10;;;;;;;7.75;100.00;99214.27;109114;1254;74743;-57
2024/01/02 10:35:37;;;;;;;8.40;4.80;;;;;;;7.76;100.00;99211.72;109028;1254;66985;-54
2024/01/02 10:38:10;;;;;;;7.20;5.10;;;;;;;7.78;100.00;99204.59;109044;1254;71504;-54
2024/01/02 10:40:42;;;;;;;7.00;4.60;;;;;;;7.79;100.00;99194.95;109117;1254;59495;-56
2024/01/02 10:43:35;;;;;;;7.40;4.30;;;;;;;7.79;100.00;99196.30;109276;1254;60087;-56
2024/01/02 10:46:25;;;;;;;6.90;3.80;;;;;;;7.78;100.00;99194.90;108956;1254;74069;-54
2024/01/02 10:48:59;;;;;;;5.60;3.20;;;;;;;7.77;100.00;99193.65;109303;1254;67207;-54
2024/01/02 10:51:40;;;;;;;6.90;3.70;;;;;;;7.73;100.00;99192.04;109162;1254;73223;-54
2024/01/02 10:54:20;;;;;;;6.90;4.40;;;;;;;7.64;100.00;99198.91;109097;1254;59661;-54
2024/01/02 10:57:00;;;;;;;7.80;4.10;;;;;;;7.63;100.00;99196.28;109217;1254;60791;-54
2024/01/02 10:59:47;;;;;;;6.40;4.00;;;;;;;7.64;100.00;99194.21;109193;1254;74738;-54
2024/01/02 11:02:41;;;;;;;6.80;3.90;;;;;;;7.63;100.00;99197.71;109115;1254;67812;-54
2024/01/02 11:05:15;;;;;;;7.30;3.70;;;;;;;7.63;100.00;99190.17;109280;1253;72810;-54
2024/01/02 11:07:45;;;;;;;5.70;3.70;;;;;;;7.63;100.00;99187.27;109194;1254;63389;-56
2024/01/02 11:10:14;;;;;;;6.80;3.80;;;;;;;7.62;100.00;99188.42;108997;1254;60118;-54
2024/01/02 11:13:01;;;;;;;8.80;3.90;;;;;;;7.62;100.00;99192.32;109193;1254;75246;-54
2024/01/02 11:15:42;;;;;;;6.80;4.20;;;;;;;7.59;100.00;99194.09;109220;1256;69730;-53
2024/01/02 11:18:10;;;;;;;7.70;4.30;;;;;;;7.59;100.00;99190.77;108965;1259;72813;-54
2024/01/02 11:21:07;;;;;;;9.00;4.80;;;;;;;7.53;100.00;99191.59;109061;1254;59362;-54
2024/01/02 11:23:40;;;;;;;7.60;4.40;;;;;;;7.49;100.00;99192.13;108994;1254;59354;-54